createdAt,value
2022-09-18T00:02:00.883Z,98815.41
2022-09-18T00:04:33.438Z,98813.79
2022-09-18T00:07:02.329Z,98810.52
2022-09-18T00:09:34.003Z,98811.48
2022-09-18T00:12:05.234Z,98814.17
2022-09-18T00:14:34.405Z,98811.17
2022-09-18T00:17:08.318Z,98812.48
2022-09-18T00:19:39.904Z,98809.49
2022-09-18T00:22:08.792Z,98808.65
2022-09-18T00:24:41.167Z,98810.86
2022-09-18T00:27:11.643Z,98811.06
2022-09-18T00:29:40.426Z,98811.96
2022-09-18T00:32:10.922Z,98813.80
2022-09-18T00:34:41.968Z,98810.75
2022-09-18T00:37:11.874Z,98805.75
2022-09-18T00:39:40.905Z,98805.48
2022-09-18T00:42:14.359Z,98808.84
2022-09-18T00:44:45.835Z,98814.31
2022-09-18T00:47:30.085Z,98812.94
2022-09-18T00:50:04.834Z,98809.41
2022-09-18T00:52:51.049Z,98807.15
2022-09-18T00:55:27.934Z,98811.20
2022-09-18T00:58:00.111Z,98808.20
2022-09-18T01:00:30.364Z,98805.58
2022-09-18T01:03:01.755Z,98806.11
2022-09-18T01:05:49.068Z,98803.89
2022-09-18T01:09:11.865Z,98803.85
2022-09-18T01:12:23.731Z,98806.27
2022-09-18T01:15:18.544Z,98812.89
2022-09-18T01:17:59.021Z,98811.48
2022-09-18T01:20:58.418Z,98811.98
2022-09-18T01:23:27.787Z,98810.30
2022-09-18T01:26:41.831Z,98812.08
2022-09-18T01:29:32.336Z,98811.73
2022-09-18T01:32:33.951Z,98811.05
2022-09-18T01:35:39.471Z,98811.05
2022-09-18T01:38:34.455Z,98807.80
2022-09-18T01:41:24.840Z,98804.27
2022-09-18T01:44:01.337Z,98803.06
2022-09-18T01:46:31.422Z,98803.54
2022-09-18T01:49:14.026Z,98802.95
2022-09-18T01:52:10.877Z,98801.05
2022-09-18T01:54:44.954Z,98797.63
2022-09-18T01:57:23.335Z,98797.15
2022-09-18T01:59:58.932Z,98800.05
2022-09-18T02:02:38.279Z,98797.86
2022-09-18T02:05:12.177Z,98797.48
2022-09-18T02:07:59.295Z,98799.52
2022-09-18T02:10:36.981Z,98798.64
2022-09-18T02:13:10.445Z,98800.11
2022-09-18T02:15:42.708Z,98801.96
2022-09-18T02:18:24.526Z,98801.91
2022-09-18T02:20:56.125Z,98800.04
2022-09-18T02:23:26.475Z,98796.31
2022-09-18T02:26:05.144Z,98798.94
2022-09-18T02:28:38.651Z,98798.27
2022-09-18T02:31:08.826Z,98794.00
2022-09-18T02:33:39.043Z,98791.54
2022-09-18T02:36:42.285Z,98788.91
2022-09-18T02:39:32.113Z,98790.85
2022-09-18T02:42:31.042Z,98787.75
2022-09-18T02:45:12.930Z,98791.73
2022-09-18T02:48:20.723Z,98795.95
2022-09-18T02:51:08.083Z,98792.48
2022-09-18T02:53:57.726Z,98793.95
2022-09-18T02:56:42.345Z,98791.12
2022-09-18T02:59:19.003Z,98792.42
2022-09-18T03:01:56.502Z,98791.44
2022-09-18T03:04:28.160Z,98798.23
2022-09-18T03:07:16.438Z,98801.33
2022-09-18T03:09:48.328Z,98798.02
2022-09-18T03:12:25.766Z,98797.70
2022-09-18T03:14:55.685Z,98801.85
2022-09-18T03:17:26.087Z,98799.64
2022-09-18T03:19:55.686Z,98800.43
2022-09-18T03:22:24.608Z,98797.95
2022-09-18T03:24:56.595Z,98797.16
2022-09-18T03:27:26.395Z,98795.33
2022-09-18T03:29:55.410Z,98797.90
2022-09-18T03:32:25.964Z,98794.95
2022-09-18T03:34:58.158Z,98790.58
2022-09-18T03:37:29.420Z,98794.48
2022-09-18T03:40:01.174Z,98793.48
2022-09-18T03:42:30.727Z,98793.06
2022-09-18T03:45:02.316Z,98797.64
2022-09-18T03:47:36.576Z,98795.64
2022-09-18T03:50:07.400Z,98797.46
2022-09-18T03:52:40.038Z,98798.11
2022-09-18T03:55:26.402Z,98797.31
2022-09-18T03:58:29.283Z,98795.42
2022-09-18T04:01:16.244Z,98796.61
2022-09-18T04:04:04.814Z,98794.98
2022-09-18T04:07:05.339Z,98796.61
2022-09-18T04:09:56.709Z,98789.14
2022-09-18T04:12:27.202Z,98790.30
2022-09-18T04:15:07.554Z,98789.30
2022-09-18T04:17:39.779Z,98788.87
2022-09-18T04:20:10.255Z,98786.98
2022-09-18T04:22:39.268Z,98790.23
2022-09-18T04:25:10.819Z,98788.92
2022-09-18T04:27:40.917Z,98795.77
2022-09-18T04:30:12.282Z,98796.03
2022-09-18T04:32:44.953Z,98797.35
2022-09-18T04:35:17.057Z,98797.08
2022-09-18T04:37:47.020Z,98797.50
2022-09-18T04:40:18.304Z,98796.67
2022-09-18T04:42:49.621Z,98800.35
2022-09-18T04:45:19.923Z,98801.82
2022-09-18T04:47:49.749Z,98798.58
2022-09-18T04:50:21.154Z,98799.89
2022-09-18T04:53:11.102Z,98798.98
2022-09-18T04:55:42.667Z,98802.83
2022-09-18T04:58:13.158Z,98801.40
2022-09-18T05:00:45.109Z,98804.49
2022-09-18T05:03:20.331Z,98803.82
2022-09-18T05:05:53.336Z,98807.48
2022-09-18T05:08:23.863Z,98803.59
2022-09-18T05:10:53.212Z,98803.42
2022-09-18T05:13:22.990Z,98801.84
2022-09-18T05:16:15.491Z,98804.73
2022-09-18T05:18:45.096Z,98804.95
2022-09-18T05:21:14.431Z,98798.31
2022-09-18T05:23:44.837Z,98801.34
2022-09-18T05:26:15.055Z,98800.02
2022-09-18T05:28:43.906Z,98802.48
2022-09-18T05:31:13.343Z,98805.15
2022-09-18T05:33:46.954Z,98801.84
2022-09-18T05:36:15.923Z,98801.41
2022-09-18T05:38:47.735Z,98799.52
2022-09-18T05:41:17.495Z,98798.97
2022-09-18T05:43:48.484Z,98796.33
2022-09-18T05:46:19.299Z,98801.89
2022-09-18T05:48:56.416Z,98806.16
2022-09-18T05:51:27.357Z,98802.90
2022-09-18T05:53:56.837Z,98811.55
2022-09-18T05:56:46.074Z,98807.44
2022-09-18T05:59:16.368Z,98801.23
2022-09-18T06:01:47.734Z,98805.25
2022-09-18T06:04:48.847Z,98809.27
2022-09-18T06:07:18.968Z,98812.79
2022-09-18T06:09:48.736Z,98810.14
2022-09-18T06:12:17.765Z,98810.94
2022-09-18T06:14:46.550Z,98807.89
2022-09-18T06:17:18.296Z,98805.90
2022-09-18T06:19:51.158Z,98809.73
2022-09-18T06:22:20.196Z,98812.85
2022-09-18T06:24:49.461Z,98814.91
2022-09-18T06:27:22.454Z,98823.41
2022-09-18T06:29:52.491Z,98820.27
2022-09-18T06:32:32.900Z,98825.53
2022-09-18T06:35:02.802Z,98825.76
2022-09-18T06:37:35.641Z,98824.85
2022-09-18T06:40:15.816Z,98824.20
2022-09-18T06:43:11.568Z,98816.88
2022-09-18T06:45:59.702Z,98822.21
2022-09-18T06:48:32.076Z,98815.96
2022-09-18T06:51:02.503Z,98819.60
2022-09-18T06:53:36.971Z,98814.33
2022-09-18T06:56:07.309Z,98814.81
2022-09-18T06:58:37.619Z,98812.54
2022-09-18T07:01:07.592Z,98810.02
2022-09-18T07:03:42.328Z,98812.04
2022-09-18T07:06:34.271Z,98810.73
2022-09-18T07:09:06.605Z,98807.85
2022-09-18T07:11:51.989Z,98812.13
2022-09-18T07:14:21.151Z,98811.84
2022-09-18T07:16:52.730Z,98813.98
2022-09-18T07:19:21.760Z,98816.83
2022-09-18T07:21:53.718Z,98814.50
2022-09-18T07:24:23.733Z,98814.55
2022-09-18T07:26:52.842Z,98814.48
2022-09-18T07:29:23.133Z,98818.31
2022-09-18T07:31:54.195Z,98813.30
2022-09-18T07:34:23.572Z,98816.00
2022-09-18T07:36:52.529Z,98817.89
2022-09-18T07:39:21.882Z,98818.30
2022-09-18T07:42:09.327Z,98817.96
2022-09-18T07:44:38.371Z,98822.70
2022-09-18T07:47:08.240Z,98823.02
2022-09-18T07:49:39.359Z,98816.77
2022-09-18T07:52:11.769Z,98818.95
2022-09-18T07:54:47.296Z,98819.02
2022-09-18T07:57:31.855Z,98816.63
2022-09-18T08:00:29.742Z,98818.30
2022-09-18T08:03:04.052Z,98817.67
2022-09-18T08:05:53.476Z,98817.49
2022-09-18T08:08:24.890Z,98817.75
2022-09-18T08:11:52.301Z,98816.17
2022-09-18T08:14:49.491Z,98815.34
2022-09-18T08:17:48.018Z,98819.67
2022-09-18T08:20:42.563Z,98820.58
2022-09-18T08:23:35.975Z,98824.48
2022-09-18T08:26:07.147Z,98821.38
2022-09-18T08:28:39.296Z,98821.43
2022-09-18T08:31:10.680Z,98817.30
2022-09-18T08:33:40.951Z,98814.95
2022-09-18T08:36:12.314Z,98815.33
2022-09-18T08:38:54.350Z,98813.21
2022-09-18T08:42:26.241Z,98817.75
2022-09-18T08:45:02.010Z,98816.82
2022-09-18T08:47:39.697Z,98819.86
2022-09-18T08:50:27.879Z,98822.16
2022-09-18T08:53:05.118Z,98821.98
2022-09-18T08:55:51.141Z,98824.61
2022-09-18T08:58:45.809Z,98829.45
2022-09-18T09:01:20.627Z,98830.38
2022-09-18T09:04:19.920Z,98826.15
2022-09-18T09:07:16.490Z,98823.44
2022-09-18T09:10:00.945Z,98824.61
2022-09-18T09:12:44.248Z,98820.19
2022-09-18T09:15:52.574Z,98821.58
2022-09-18T09:18:33.461Z,98820.31
2022-09-18T09:21:39.491Z,98820.04
2022-09-18T09:24:25.787Z,98823.48
2022-09-18T09:27:46.014Z,98828.50
2022-09-18T09:30:43.200Z,98827.48
2022-09-18T09:33:42.472Z,98831.69
2022-09-18T09:36:43.982Z,98834.63
2022-09-18T09:39:25.542Z,98833.23
2022-09-18T09:42:33.035Z,98833.80
2022-09-18T09:45:29.889Z,98837.20
2022-09-18T09:48:24.407Z,98838.11
2022-09-18T09:51:13.395Z,98847.23
2022-09-18T09:53:42.283Z,98852.72
2022-09-18T09:56:34.453Z,98855.80
2022-09-18T09:59:34.174Z,98854.21
2022-09-18T10:02:32.361Z,98859.75
2022-09-18T10:05:04.764Z,98857.42
2022-09-18T10:08:03.490Z,98859.67
2022-09-18T10:10:57.116Z,98858.69
2022-09-18T10:13:35.018Z,98866.18
2022-09-18T10:16:13.626Z,98869.86
2022-09-18T10:18:46.555Z,98877.86
2022-09-18T10:21:22.668Z,98878.37
2022-09-18T10:24:26.552Z,98886.35
2022-09-18T10:27:02.824Z,98885.80
2022-09-18T10:29:35.769Z,98883.64
2022-09-18T10:32:07.639Z,98884.27
2022-09-18T10:34:50.615Z,98891.22
2022-09-18T10:37:30.869Z,98890.63
2022-09-18T10:40:08.342Z,98892.48
2022-09-18T10:42:42.320Z,98892.52
2022-09-18T10:45:28.489Z,98896.88
2022-09-18T10:48:17.606Z,98889.46
2022-09-18T10:51:03.559Z,98895.97
2022-09-18T10:53:43.026Z,98892.39
2022-09-18T10:56:31.727Z,98894.07
2022-09-18T10:59:29.148Z,98895.80
2022-09-18T11:02:00.730Z,98903.92
2022-09-18T11:04:36.568Z,98908.62
2022-09-18T11:07:07.916Z,98904.22
2022-09-18T11:09:40.933Z,98903.48
2022-09-18T11:12:25.028Z,98906.64
2022-09-18T11:15:08.418Z,98907.77
2022-09-18T11:17:49.212Z,98902.35
2022-09-18T11:20:25.122Z,98904.20
2022-09-18T11:23:32.284Z,98903.10
2022-09-18T11:26:19.755Z,98900.80
2022-09-18T11:29:21.720Z,98900.18
2022-09-18T11:32:15.096Z,98895.11
2022-09-18T11:34:58.212Z,98893.91
2022-09-18T11:37:37.006Z,98897.25
2022-09-18T11:40:32.641Z,98900.65
2022-09-18T11:43:22.822Z,98897.77
2022-09-18T11:46:25.339Z,98900.48
2022-09-18T11:49:17.480Z,98897.80
2022-09-18T11:52:06.653Z,98893.41
2022-09-18T11:54:54.641Z,98890.14
2022-09-18T11:57:36.749Z,98890.46
2022-09-18T12:00:20.986Z,98890.67
2022-09-18T12:03:09.236Z,98892.52
2022-09-18T12:05:40.511Z,98891.69
2022-09-18T12:08:36.011Z,98890.04
2022-09-18T12:11:37.415Z,98890.83
2022-09-18T12:14:17.918Z,98885.25
2022-09-18T12:17:09.500Z,98888.23
2022-09-18T12:19:49.818Z,98884.05
2022-09-18T12:22:21.293Z,98883.23
2022-09-18T12:24:51.803Z,98879.74
2022-09-18T12:27:43.746Z,98877.15
2022-09-18T12:30:20.580Z,98880.05
2022-09-18T12:33:17.390Z,98879.04
2022-09-18T12:36:26.790Z,98876.05
2022-09-18T12:39:24.772Z,98872.14
2022-09-18T12:42:14.671Z,98875.20
2022-09-18T12:45:06.937Z,98875.55
2022-09-18T12:48:17.734Z,98880.18
2022-09-18T12:51:13.898Z,98880.80
2022-09-18T12:54:06.664Z,98879.25
2022-09-18T12:57:03.553Z,98881.97
2022-09-18T12:59:54.425Z,98884.29
2022-09-18T13:02:34.964Z,98880.29
2022-09-18T13:05:23.086Z,98882.34
2022-09-18T13:08:08.534Z,98882.74
2022-09-18T13:10:40.901Z,98887.27
2022-09-18T13:13:34.828Z,98887.70
2022-09-18T13:16:13.801Z,98894.48
2022-09-18T13:18:59.164Z,98894.36
2022-09-18T13:21:32.449Z,98898.27
2022-09-18T13:24:04.970Z,98899.45
2022-09-18T13:26:39.186Z,98900.23
2022-09-18T13:29:46.744Z,98901.02
2022-09-18T13:32:37.227Z,98906.85
2022-09-18T13:35:25.345Z,98909.75
2022-09-18T13:38:10.893Z,98914.25
2022-09-18T13:40:45.574Z,98912.79
2022-09-18T13:43:46.325Z,98910.23
2022-09-18T13:46:41.051Z,98916.05
2022-09-18T13:49:30.115Z,98911.86
2022-09-18T13:52:35.301Z,98915.73
2022-09-18T13:55:13.220Z,98920.27
2022-09-18T13:57:45.238Z,98913.02
2022-09-18T14:00:19.662Z,98916.52
2022-09-18T14:02:49.392Z,98914.56
2022-09-18T14:05:34.035Z,98918.61
2022-09-18T14:08:08.150Z,98919.89
2022-09-18T14:11:14.665Z,98920.52
2022-09-18T14:13:52.711Z,98922.14
2022-09-18T14:16:24.140Z,98915.95
2022-09-18T14:19:03.462Z,98918.30
2022-09-18T14:21:43.926Z,98917.06
2022-09-18T14:24:25.708Z,98919.55
2022-09-18T14:27:02.717Z,98909.80
2022-09-18T14:29:34.294Z,98910.15
2022-09-18T14:32:18.875Z,98912.95
2022-09-18T14:35:24.024Z,98906.85
2022-09-18T14:37:53.696Z,98902.14
2022-09-18T14:40:27.738Z,98900.59
2022-09-18T14:42:58.405Z,98897.33
2022-09-18T14:45:33.425Z,98902.64
2022-09-18T14:48:22.105Z,98903.49
2022-09-18T14:51:07.136Z,98898.10
2022-09-18T14:53:45.496Z,98898.48
2022-09-18T14:56:24.808Z,98898.51
2022-09-18T14:58:53.817Z,98902.02
2022-09-18T15:01:30.165Z,98898.30
2022-09-18T15:04:03.008Z,98898.31
2022-09-18T15:06:47.319Z,98900.09
2022-09-18T15:09:33.180Z,98899.77
2022-09-18T15:12:03.495Z,98896.37
2022-09-18T15:14:44.320Z,98902.23
2022-09-18T15:17:25.834Z,98897.06
2022-09-18T15:20:17.780Z,98896.42
2022-09-18T15:22:49.191Z,98899.10
2022-09-18T15:25:26.647Z,98897.51
2022-09-18T15:28:03.494Z,98892.10
2022-09-18T15:30:36.294Z,98896.15
2022-09-18T15:33:16.556Z,98894.27
2022-09-18T15:35:52.543Z,98899.90
2022-09-18T15:38:26.380Z,98897.44
2022-09-18T15:40:57.920Z,98899.83
2022-09-18T15:43:30.285Z,98903.77
2022-09-18T15:46:08.123Z,98906.88
2022-09-18T15:48:39.966Z,98907.93
2022-09-18T15:51:22.036Z,98913.29
2022-09-18T15:54:13.671Z,98912.48
2022-09-18T15:56:59.416Z,98913.91
2022-09-18T15:59:46.162Z,98921.39
2022-09-18T16:02:39.816Z,98923.93
2022-09-18T16:05:15.746Z,98926.61
2022-09-18T16:08:04.483Z,98923.09
2022-09-18T16:10:56.607Z,98922.69
2022-09-18T16:13:38.305Z,98925.04
2022-09-18T16:16:31.223Z,98920.36
2022-09-18T16:19:10.743Z,98928.53
2022-09-18T16:21:45.191Z,98932.14
2022-09-18T16:24:30.060Z,98932.80
2022-09-18T16:27:08.678Z,98936.01
2022-09-18T16:29:37.755Z,98943.96
2022-09-18T16:32:14.609Z,98940.27
2022-09-18T16:34:47.122Z,98940.70
2022-09-18T16:37:17.739Z,98938.15
2022-09-18T16:39:47.484Z,98945.35
2022-09-18T16:42:19.137Z,98943.38
2022-09-18T16:44:48.916Z,98948.12
2022-09-18T16:47:19.405Z,98946.40
2022-09-18T16:49:49.813Z,98945.77
2022-09-18T16:52:24.930Z,98947.55
2022-09-18T16:54:55.491Z,98949.38
2022-09-18T16:57:27.994Z,98949.19
2022-09-18T17:00:02.405Z,98950.16
2022-09-18T17:02:34.094Z,98944.07
2022-09-18T17:05:04.053Z,98945.56
2022-09-18T17:07:33.591Z,98947.57
2022-09-18T17:10:06.781Z,98945.59
2022-09-18T17:12:37.648Z,98945.23
2022-09-18T17:15:09.650Z,98947.46
2022-09-18T17:17:42.371Z,98944.48
2022-09-18T17:20:18.747Z,98946.71
2022-09-18T17:22:51.489Z,98949.04
2022-09-18T17:25:21.470Z,98948.23
2022-09-18T17:27:53.473Z,98952.99
2022-09-18T17:30:26.258Z,98951.29
2022-09-18T17:32:58.232Z,98951.88
2022-09-18T17:35:28.378Z,98957.27
2022-09-18T17:38:00.788Z,98956.05
2022-09-18T17:40:30.316Z,98959.02
2022-09-18T17:43:01.854Z,98960.30
2022-09-18T17:45:33.349Z,98964.49
2022-09-18T17:48:03.223Z,98959.33
2022-09-18T17:50:35.613Z,98963.06
2022-09-18T17:53:06.712Z,98962.05
2022-09-18T17:55:38.415Z,98964.96
2022-09-18T17:58:10.515Z,98969.75
2022-09-18T18:00:42.781Z,98970.56
2022-09-18T18:03:16.431Z,98970.05
2022-09-18T18:05:55.360Z,98974.52
2022-09-18T18:08:30.240Z,98974.99
2022-09-18T18:11:09.779Z,98976.30
2022-09-18T18:13:40.450Z,98978.92
2022-09-18T18:16:17.217Z,98980.61
2022-09-18T18:18:47.774Z,98979.85
2022-09-18T18:21:17.717Z,98974.41
2022-09-18T18:23:52.442Z,98975.33
2022-09-18T18:26:21.790Z,98974.94
2022-09-18T18:28:53.550Z,98974.73
2022-09-18T18:31:27.018Z,98970.80
2022-09-18T18:33:57.298Z,98977.52
2022-09-18T18:36:31.544Z,98971.27
2022-09-18T18:39:04.976Z,98968.78
2022-09-18T18:41:37.936Z,98972.33
2022-09-18T18:44:11.699Z,98973.90
2022-09-18T18:46:45.139Z,98976.73
2022-09-18T18:49:17.488Z,98977.48
2022-09-18T18:51:52.594Z,98979.45
2022-09-18T18:54:24.842Z,98979.88
2022-09-18T18:56:56.205Z,98979.67
2022-09-18T18:59:34.691Z,98981.96
2022-09-18T19:02:05.452Z,98985.51
2022-09-18T19:04:38.693Z,98983.67
2022-09-18T19:07:08.929Z,98986.10
2022-09-18T19:09:38.452Z,98988.84
2022-09-18T19:12:18.186Z,98985.10
2022-09-18T19:14:55.333Z,98984.06
2022-09-18T19:17:27.891Z,98984.97
2022-09-18T19:20:00.932Z,98989.19
2022-09-18T19:22:31.732Z,98988.04
2022-09-18T19:25:02.135Z,98987.04
2022-09-18T19:27:42.301Z,98986.63
2022-09-18T19:30:12.356Z,98984.41
2022-09-18T19:32:42.675Z,98987.52
2022-09-18T19:35:13.453Z,98983.85
2022-09-18T19:37:44.514Z,98980.95
2022-09-18T19:40:18.448Z,98982.41
2022-09-18T19:42:57.318Z,98985.73
2022-09-18T19:45:30.099Z,98986.27
2022-09-18T19:48:07.841Z,98983.70
2022-09-18T19:50:40.679Z,98983.13
2022-09-18T19:53:12.197Z,98979.43
2022-09-18T19:55:48.354Z,98978.91
2022-09-18T19:58:21.229Z,98976.39
2022-09-18T20:00:51.865Z,98976.12
2022-09-18T20:03:22.543Z,98975.68
2022-09-18T20:05:52.810Z,98976.63
2022-09-18T20:08:24.095Z,98977.72
2022-09-18T20:10:59.257Z,98973.52
2022-09-18T20:13:29.143Z,98979.59
2022-09-18T20:16:02.424Z,98975.86
2022-09-18T20:18:36.039Z,98980.91
2022-09-18T20:21:10.058Z,98976.48
2022-09-18T20:23:43.055Z,98978.75
2022-09-18T20:26:16.730Z,98979.07
2022-09-18T20:28:49.737Z,98979.02
2022-09-18T20:31:24.803Z,98981.44
2022-09-18T20:33:56.844Z,98980.07
2022-09-18T20:36:27.485Z,98977.08
2022-09-18T20:39:01.316Z,98981.02
2022-09-18T20:41:31.030Z,98984.85
2022-09-18T20:44:01.543Z,98981.48
2022-09-18T20:46:36.366Z,98979.06
2022-09-18T20:49:08.752Z,98979.95
2022-09-18T20:51:40.068Z,98978.80
2022-09-18T20:54:08.986Z,98980.76
2022-09-18T20:56:44.990Z,98978.02
2022-09-18T20:59:17.137Z,98979.33
2022-09-18T21:01:48.351Z,98979.54
2022-09-18T21:04:19.917Z,98982.48
2022-09-18T21:06:56.596Z,98980.16
2022-09-18T21:09:28.710Z,98981.83
2022-09-18T21:12:23.097Z,98983.05
2022-09-18T21:14:54.018Z,98982.93
2022-09-18T21:17:22.911Z,98982.36
2022-09-18T21:19:55.294Z,98982.47
2022-09-18T21:22:24.434Z,98986.27
2022-09-18T21:24:54.711Z,98985.85
2022-09-18T21:27:24.990Z,98989.52
2022-09-18T21:29:56.951Z,98990.52
2022-09-18T21:32:27.327Z,98990.90
2022-09-18T21:35:03.784Z,98988.13
2022-09-18T21:37:33.069Z,98986.08
2022-09-18T21:40:04.469Z,98985.29
2022-09-18T21:42:34.654Z,98988.17
2022-09-18T21:45:04.336Z,98988.75
2022-09-18T21:47:37.957Z,98986.41
2022-09-18T21:50:06.958Z,98989.56
2022-09-18T21:52:35.723Z,98985.56
2022-09-18T21:55:04.847Z,98985.77
2022-09-18T21:57:33.680Z,98987.24
2022-09-18T22:00:05.326Z,98982.09
2022-09-18T22:03:43.747Z,98981.48
2022-09-18T22:06:12.678Z,98983.15
2022-09-18T22:08:42.661Z,98984.94
2022-09-18T22:11:11.984Z,98987.41
2022-09-18T22:13:42.140Z,98984.94
2022-09-18T22:16:12.070Z,98983.05
2022-09-18T22:18:42.049Z,98986.09
2022-09-18T22:21:20.741Z,98986.61
2022-09-18T22:23:57.266Z,98982.35
2022-09-18T22:26:29.957Z,98983.91
2022-09-18T22:28:59.519Z,98983.49
2022-09-18T22:31:28.597Z,98983.55
2022-09-18T22:33:58.737Z,98981.39
2022-09-18T22:36:28.300Z,98981.96
2022-09-18T22:38:59.391Z,98978.39
2022-09-18T22:41:28.245Z,98981.09
2022-09-18T22:43:58.318Z,98979.71
2022-09-18T22:46:30.630Z,98980.82
2022-09-18T22:49:00.256Z,98984.35
2022-09-18T22:51:30.616Z,98985.30
2022-09-18T22:54:05.137Z,98984.86
2022-09-18T22:56:41.657Z,98981.55
2022-09-18T22:59:15.405Z,98984.48
2022-09-18T23:02:03.943Z,98980.75
2022-09-18T23:04:34.756Z,98979.48
2022-09-18T23:07:06.179Z,98982.02
2022-09-18T23:09:35.596Z,98981.80
2022-09-18T23:12:07.074Z,98983.75
2022-09-18T23:14:35.981Z,98983.58
2022-09-18T23:17:05.727Z,98985.27
2022-09-18T23:19:37.402Z,98984.10
2022-09-18T23:22:10.427Z,98984.20
2022-09-18T23:24:41.660Z,98983.42
2022-09-18T23:27:12.208Z,98980.69
2022-09-18T23:29:41.417Z,98980.90
2022-09-18T23:32:10.217Z,98982.22
2022-09-18T23:34:41.931Z,98982.06
2022-09-18T23:37:10.845Z,98978.54
2022-09-18T23:39:41.507Z,98979.12
2022-09-18T23:42:11.233Z,98979.70
2022-09-18T23:44:41.191Z,98977.89
2022-09-18T23:47:11.027Z,98978.47
2022-09-18T23:49:40.361Z,98978.63
2022-09-18T23:52:11.693Z,98973.84
2022-09-18T23:54:40.638Z,98973.89
2022-09-18T23:57:10.617Z,98972.47
2022-09-18T23:59:40.649Z,98972.00
